sensor_id;sensor_type;location;lat;lon;timestamp;P1;durP1;ratioP1;P2;durP2;ratioP2
8407;SDS011;4241;48.452;9.216;2022-11-15T00:01:57;348.47;;;124.33;;
8407;SDS011;4241;48.452;9.216;2022-11-15T00:04:24;348.70;;;123.97;;
8407;SDS011;4241;48.452;9.216;2022-11-15T00:06:51;350.43;;;124.67;;
8407;SDS011;4241;48.452;9.216;2022-11-15T00:09:18;347.57;;;123.33;;
8407;SDS011;4241;48.452;9.216;2022-11-15T00:11:46;345.77;;;122.73;;
8407;SDS011;4241;48.452;9.216;2022-11-15T00:14:13;349.23;;;124.17;;
8407;SDS011;4241;48.452;9.216;2022-11-15T00:16:40;347.07;;;123.23;;
8407;SDS011;4241;48.452;9.216;2022-11-15T00:19:06;346.13;;;122.53;;
8407;SDS011;4241;48.452;9.216;2022-11-15T00:21:33;348.57;;;123.77;;
8407;SDS011;4241;48.452;9.216;2022-11-15T00:24:00;336.60;;;120.63;;
8407;SDS011;4241;48.452;9.216;2022-11-15T00:26:27;335.63;;;120.10;;
8407;SDS011;4241;48.452;9.216;2022-11-15T00:28:55;335.07;;;119.03;;
8407;SDS011;4241;48.452;9.216;2022-11-15T00:31:22;337.47;;;120.60;;
8407;SDS011;4241;48.452;9.216;2022-11-15T00:33:48;340.97;;;122.57;;
8407;SDS011;4241;48.452;9.216;2022-11-15T00:36:16;332.60;;;120.47;;
8407;SDS011;4241;48.452;9.216;2022-11-15T00:38:42;324.67;;;115.67;;
8407;SDS011;4241;48.452;9.216;2022-11-15T00:41:09;328.20;;;117.87;;
8407;SDS011;4241;48.452;9.216;2022-11-15T00:43:36;322.17;;;115.00;;
8407;SDS011;4241;48.452;9.216;2022-11-15T00:46:06;324.90;;;117.83;;
8407;SDS011;4241;48.452;9.216;2022-11-15T00:48:34;320.90;;;114.77;;
8407;SDS011;4241;48.452;9.216;2022-11-15T00:51:00;325.90;;;116.43;;
8407;SDS011;4241;48.452;9.216;2022-11-15T00:53:27;320.77;;;115.00;;
8407;SDS011;4241;48.452;9.216;2022-11-15T00:55:54;319.43;;;113.67;;
8407;SDS011;4241;48.452;9.216;2022-11-15T00:58:21;323.43;;;115.77;;
8407;SDS011;4241;48.452;9.216;2022-11-15T01:00:48;322.70;;;117.30;;
8407;SDS011;4241;48.452;9.216;2022-11-15T01:03:16;317.83;;;114.13;;
8407;SDS011;4241;48.452;9.216;2022-11-15T01:05:43;314.40;;;112.47;;
8407;SDS011;4241;48.452;9.216;2022-11-15T01:08:11;308.90;;;111.23;;
8407;SDS011;4241;48.452;9.216;2022-11-15T01:10:38;311.97;;;111.23;;
8407;SDS011;4241;48.452;9.216;2022-11-15T01:13:05;311.57;;;112.00;;
8407;SDS011;4241;48.452;9.216;2022-11-15T01:15:32;314.37;;;113.30;;
8407;SDS011;4241;48.452;9.216;2022-11-15T01:17:59;305.20;;;110.17;;
8407;SDS011;4241;48.452;9.216;2022-11-15T01:20:27;309.03;;;111.03;;
8407;SDS011;4241;48.452;9.216;2022-11-15T01:22:54;303.97;;;109.67;;
8407;SDS011;4241;48.452;9.216;2022-11-15T01:25:21;306.37;;;110.47;;
8407;SDS011;4241;48.452;9.216;2022-11-15T01:27:48;309.17;;;112.37;;
8407;SDS011;4241;48.452;9.216;2022-11-15T01:30:15;304.03;;;110.47;;
8407;SDS011;4241;48.452;9.216;2022-11-15T01:32:41;298.70;;;108.53;;
8407;SDS011;4241;48.452;9.216;2022-11-15T01:35:08;298.10;;;108.00;;
8407;SDS011;4241;48.452;9.216;2022-11-15T01:37:36;304.80;;;111.33;;
8407;SDS011;4241;48.452;9.216;2022-11-15T01:40:03;299.80;;;108.93;;
8407;SDS011;4241;48.452;9.216;2022-11-15T01:42:31;298.57;;;108.87;;
8407;SDS011;4241;48.452;9.216;2022-11-15T01:44:58;303.17;;;110.67;;
8407;SDS011;4241;48.452;9.216;2022-11-15T01:47:25;296.90;;;107.70;;
8407;SDS011;4241;48.452;9.216;2022-11-15T01:49:57;293.07;;;105.77;;
8407;SDS011;4241;48.452;9.216;2022-11-15T01:52:26;297.57;;;107.63;;
8407;SDS011;4241;48.452;9.216;2022-11-15T01:55:03;295.87;;;109.27;;
8407;SDS011;4241;48.452;9.216;2022-11-15T01:57:34;294.67;;;108.20;;
8407;SDS011;4241;48.452;9.216;2022-11-15T02:00:02;287.90;;;105.93;;
8407;SDS011;4241;48.452;9.216;2022-11-15T02:02:31;281.70;;;104.10;;
8407;SDS011;4241;48.452;9.216;2022-11-15T02:04:59;283.67;;;105.60;;
8407;SDS011;4241;48.452;9.216;2022-11-15T02:07:26;279.70;;;104.20;;
8407;SDS011;4241;48.452;9.216;2022-11-15T02:09:54;276.37;;;103.53;;
8407;SDS011;4241;48.452;9.216;2022-11-15T02:12:25;277.27;;;103.97;;
8407;SDS011;4241;48.452;9.216;2022-11-15T02:14:52;285.20;;;109.50;;
8407;SDS011;4241;48.452;9.216;2022-11-15T02:20:26;271.77;;;102.10;;
8407;SDS011;4241;48.452;9.216;2022-11-15T02:26:28;276.23;;;105.07;;
8407;SDS011;4241;48.452;9.216;2022-11-15T02:29:15;267.10;;;100.73;;
8407;SDS011;4241;48.452;9.216;2022-11-15T02:31:55;267.10;;;100.37;;
8407;SDS011;4241;48.452;9.216;2022-11-15T02:34:31;271.43;;;102.83;;
8407;SDS011;4241;48.452;9.216;2022-11-15T02:37:11;269.17;;;100.70;;
8407;SDS011;4241;48.452;9.216;2022-11-15T02:39:44;268.60;;;101.67;;
8407;SDS011;4241;48.452;9.216;2022-11-15T02:42:17;271.83;;;103.33;;
8407;SDS011;4241;48.452;9.216;2022-11-15T02:45:05;269.43;;;101.93;;
8407;SDS011;4241;48.452;9.216;2022-11-15T02:47:37;272.80;;;102.60;;
8407;SDS011;4241;48.452;9.216;2022-11-15T02:50:10;274.83;;;102.37;;
8407;SDS011;4241;48.452;9.216;2022-11-15T02:52:38;274.83;;;100.90;;
8407;SDS011;4241;48.452;9.216;2022-11-15T02:57:57;273.17;;;101.37;;
8407;SDS011;4241;48.452;9.216;2022-11-15T03:00:46;277.97;;;103.77;;
8407;SDS011;4241;48.452;9.216;2022-11-15T03:03:26;285.83;;;106.37;;
8407;SDS011;4241;48.452;9.216;2022-11-15T03:06:04;289.30;;;106.40;;
8407;SDS011;4241;48.452;9.216;2022-11-15T03:08:44;289.53;;;105.40;;
8407;SDS011;4241;48.452;9.216;2022-11-15T03:11:19;297.77;;;111.10;;
8407;SDS011;4241;48.452;9.216;2022-11-15T03:13:48;301.20;;;111.47;;
8407;SDS011;4241;48.452;9.216;2022-11-15T03:16:24;296.87;;;108.90;;
8407;SDS011;4241;48.452;9.216;2022-11-15T03:18:59;301.43;;;111.03;;
8407;SDS011;4241;48.452;9.216;2022-11-15T03:21:31;304.27;;;112.07;;
8407;SDS011;4241;48.452;9.216;2022-11-15T03:24:01;308.73;;;113.17;;
8407;SDS011;4241;48.452;9.216;2022-11-15T03:26:37;316.27;;;115.90;;
8407;SDS011;4241;48.452;9.216;2022-11-15T03:29:08;311.77;;;113.73;;
8407;SDS011;4241;48.452;9.216;2022-11-15T03:31:39;319.30;;;116.80;;
8407;SDS011;4241;48.452;9.216;2022-11-15T03:34:15;318.03;;;115.60;;
8407;SDS011;4241;48.452;9.216;2022-11-15T03:36:48;319.97;;;117.53;;
8407;SDS011;4241;48.452;9.216;2022-11-15T03:39:17;319.50;;;118.10;;
8407;SDS011;4241;48.452;9.216;2022-11-15T03:41:46;315.33;;;114.93;;
8407;SDS011;4241;48.452;9.216;2022-11-15T03:44:16;319.80;;;117.27;;
8407;SDS011;4241;48.452;9.216;2022-11-15T03:46:55;320.47;;;117.07;;
8407;SDS011;4241;48.452;9.216;2022-11-15T03:49:29;319.97;;;117.20;;
8407;SDS011;4241;48.452;9.216;2022-11-15T03:51:59;319.93;;;117.83;;
8407;SDS011;4241;48.452;9.216;2022-11-15T03:54:27;320.80;;;119.60;;
8407;SDS011;4241;48.452;9.216;2022-11-15T03:56:54;317.20;;;117.43;;
8407;SDS011;4241;48.452;9.216;2022-11-15T03:59:21;315.83;;;116.73;;
8407;SDS011;4241;48.452;9.216;2022-11-15T04:01:48;313.03;;;115.67;;
8407;SDS011;4241;48.452;9.216;2022-11-15T04:04:15;311.03;;;115.60;;
8407;SDS011;4241;48.452;9.216;2022-11-15T04:06:43;306.90;;;112.87;;
8407;SDS011;4241;48.452;9.216;2022-11-15T04:09:10;302.67;;;112.70;;
8407;SDS011;4241;48.452;9.216;2022-11-15T04:11:37;299.87;;;112.03;;
8407;SDS011;4241;48.452;9.216;2022-11-15T04:14:04;296.03;;;111.37;;
8407;SDS011;4241;48.452;9.216;2022-11-15T04:16:30;292.70;;;110.73;;
8407;SDS011;4241;48.452;9.216;2022-11-15T04:18:57;286.40;;;107.80;;
8407;SDS011;4241;48.452;9.216;2022-11-15T04:21:43;284.33;;;108.27;;
8407;SDS011;4241;48.452;9.216;2022-11-15T04:24:27;278.73;;;105.77;;
8407;SDS011;4241;48.452;9.216;2022-11-15T04:26:54;281.30;;;107.07;;
8407;SDS011;4241;48.452;9.216;2022-11-15T04:29:21;275.87;;;104.40;;
8407;SDS011;4241;48.452;9.216;2022-11-15T04:32:03;276.20;;;105.77;;
8407;SDS011;4241;48.452;9.216;2022-11-15T04:34:30;274.90;;;104.83;;
8407;SDS011;4241;48.452;9.216;2022-11-15T04:36:59;274.20;;;105.33;;
8407;SDS011;4241;48.452;9.216;2022-11-15T04:39:38;266.70;;;101.53;;
8407;SDS011;4241;48.452;9.216;2022-11-15T04:42:05;267.47;;;102.47;;
8407;SDS011;4241;48.452;9.216;2022-11-15T04:44:32;270.23;;;103.10;;
8407;SDS011;4241;48.452;9.216;2022-11-15T04:46:59;268.90;;;102.93;;
8407;SDS011;4241;48.452;9.216;2022-11-15T04:49:26;265.30;;;103.43;;
8407;SDS011;4241;48.452;9.216;2022-11-15T04:51:52;270.90;;;104.97;;
8407;SDS011;4241;48.452;9.216;2022-11-15T04:54:21;266.57;;;102.70;;
8407;SDS011;4241;48.452;9.216;2022-11-15T04:56:48;264.57;;;101.73;;
8407;SDS011;4241;48.452;9.216;2022-11-15T04:59:14;267.43;;;103.00;;
8407;SDS011;4241;48.452;9.216;2022-11-15T05:01:41;265.97;;;102.17;;
8407;SDS011;4241;48.452;9.216;2022-11-15T05:04:08;265.87;;;101.73;;
8407;SDS011;4241;48.452;9.216;2022-11-15T05:06:47;262.77;;;100.50;;
8407;SDS011;4241;48.452;9.216;2022-11-15T05:09:14;269.60;;;102.83;;
8407;SDS011;4241;48.452;9.216;2022-11-15T05:11:43;269.17;;;103.00;;
8407;SDS011;4241;48.452;9.216;2022-11-15T05:14:10;269.33;;;102.67;;
8407;SDS011;4241;48.452;9.216;2022-11-15T05:16:37;271.40;;;102.73;;
8407;SDS011;4241;48.452;9.216;2022-11-15T05:19:04;274.93;;;104.33;;
8407;SDS011;4241;48.452;9.216;2022-11-15T05:21:31;279.30;;;106.10;;
8407;SDS011;4241;48.452;9.216;2022-11-15T05:23:59;282.03;;;106.10;;
8407;SDS011;4241;48.452;9.216;2022-11-15T05:26:26;269.50;;;102.73;;
8407;SDS011;4241;48.452;9.216;2022-11-15T05:28:55;270.37;;;102.93;;
8407;SDS011;4241;48.452;9.216;2022-11-15T05:31:23;269.50;;;103.03;;
8407;SDS011;4241;48.452;9.216;2022-11-15T05:33:51;271.07;;;104.07;;
8407;SDS011;4241;48.452;9.216;2022-11-15T05:36:21;270.03;;;103.00;;
8407;SDS011;4241;48.452;9.216;2022-11-15T05:38:53;266.20;;;101.77;;
8407;SDS011;4241;48.452;9.216;2022-11-15T05:41:21;274.63;;;104.13;;
8407;SDS011;4241;48.452;9.216;2022-11-15T05:43:52;269.50;;;102.87;;
8407;SDS011;4241;48.452;9.216;2022-11-15T05:46:20;265.80;;;101.20;;
8407;SDS011;4241;48.452;9.216;2022-11-15T05:48:48;271.50;;;102.40;;
8407;SDS011;4241;48.452;9.216;2022-11-15T05:51:17;266.90;;;101.90;;
8407;SDS011;4241;48.452;9.216;2022-11-15T05:53:46;278.20;;;105.47;;
8407;SDS011;4241;48.452;9.216;2022-11-15T05:56:14;267.83;;;102.23;;
8407;SDS011;4241;48.452;9.216;2022-11-15T05:58:41;271.13;;;103.50;;
8407;SDS011;4241;48.452;9.216;2022-11-15T06:01:10;276.27;;;105.30;;
8407;SDS011;4241;48.452;9.216;2022-11-15T06:03:37;267.03;;;102.50;;
8407;SDS011;4241;48.452;9.216;2022-11-15T06:06:03;267.43;;;103.27;;
8407;SDS011;4241;48.452;9.216;2022-11-15T06:08:30;267.93;;;102.63;;
8407;SDS011;4241;48.452;9.216;2022-11-15T06:11:02;264.50;;;101.40;;
8407;SDS011;4241;48.452;9.216;2022-11-15T06:13:30;262.97;;;99.53;;
8407;SDS011;4241;48.452;9.216;2022-11-15T06:15:57;269.57;;;101.73;;
8407;SDS011;4241;48.452;9.216;2022-11-15T06:18:25;268.67;;;102.47;;
8407;SDS011;4241;48.452;9.216;2022-11-15T06:20:52;265.10;;;100.30;;
8407;SDS011;4241;48.452;9.216;2022-11-15T06:23:19;266.80;;;100.97;;
8407;SDS011;4241;48.452;9.216;2022-11-15T06:25:46;263.57;;;102.07;;
8407;SDS011;4241;48.452;9.216;2022-11-15T06:28:12;260.30;;;98.80;;
8407;SDS011;4241;48.452;9.216;2022-11-15T06:30:39;260.00;;;99.30;;
8407;SDS011;4241;48.452;9.216;2022-11-15T06:33:06;263.57;;;100.77;;
8407;SDS011;4241;48.452;9.216;2022-11-15T06:35:36;254.03;;;97.57;;
8407;SDS011;4241;48.452;9.216;2022-11-15T06:38:03;265.70;;;103.57;;
8407;SDS011;4241;48.452;9.216;2022-11-15T06:40:33;257.17;;;98.30;;
8407;SDS011;4241;48.452;9.216;2022-11-15T06:43:01;257.33;;;97.97;;
8407;SDS011;4241;48.452;9.216;2022-11-15T06:45:28;257.87;;;97.83;;
8407;SDS011;4241;48.452;9.216;2022-11-15T06:47:56;258.90;;;98.63;;
8407;SDS011;4241;48.452;9.216;2022-11-15T06:50:22;261.80;;;99.33;;
8407;SDS011;4241;48.452;9.216;2022-11-15T06:52:51;262.57;;;99.83;;
8407;SDS011;4241;48.452;9.216;2022-11-15T06:55:18;263.80;;;99.43;;
8407;SDS011;4241;48.452;9.216;2022-11-15T06:57:48;261.73;;;99.07;;
8407;SDS011;4241;48.452;9.216;2022-11-15T07:00:16;264.60;;;99.33;;
8407;SDS011;4241;48.452;9.216;2022-11-15T07:02:44;268.10;;;100.23;;
8407;SDS011;4241;48.452;9.216;2022-11-15T07:05:12;268.47;;;101.80;;
8407;SDS011;4241;48.452;9.216;2022-11-15T07:07:39;271.23;;;101.63;;
8407;SDS011;4241;48.452;9.216;2022-11-15T07:10:08;277.77;;;105.30;;
8407;SDS011;4241;48.452;9.216;2022-11-15T07:12:35;275.00;;;103.37;;
8407;SDS011;4241;48.452;9.216;2022-11-15T07:15:02;273.67;;;102.33;;
8407;SDS011;4241;48.452;9.216;2022-11-15T07:17:29;277.87;;;103.90;;
8407;SDS011;4241;48.452;9.216;2022-11-15T07:19:56;279.43;;;103.80;;
8407;SDS011;4241;48.452;9.216;2022-11-15T07:22:22;282.70;;;104.70;;
8407;SDS011;4241;48.452;9.216;2022-11-15T07:24:49;286.33;;;106.50;;
8407;SDS011;4241;48.452;9.216;2022-11-15T07:27:17;285.07;;;104.77;;
8407;SDS011;4241;48.452;9.216;2022-11-15T07:29:44;289.67;;;106.43;;
8407;SDS011;4241;48.452;9.216;2022-11-15T07:32:11;289.07;;;107.60;;
8407;SDS011;4241;48.452;9.216;2022-11-15T07:34:38;291.17;;;107.57;;
8407;SDS011;4241;48.452;9.216;2022-11-15T07:37:04;291.80;;;107.40;;
8407;SDS011;4241;48.452;9.216;2022-11-15T07:39:31;289.70;;;106.13;;
8407;SDS011;4241;48.452;9.216;2022-11-15T07:41:58;296.63;;;108.17;;
8407;SDS011;4241;48.452;9.216;2022-11-15T07:44:44;306.50;;;114.30;;
8407;SDS011;4241;48.452;9.216;2022-11-15T07:47:11;301.03;;;110.63;;
8407;SDS011;4241;48.452;9.216;2022-11-15T07:49:38;302.97;;;111.00;;
8407;SDS011;4241;48.452;9.216;2022-11-15T07:52:05;300.67;;;110.23;;
8407;SDS011;4241;48.452;9.216;2022-11-15T07:54:32;308.10;;;112.60;;
8407;SDS011;4241;48.452;9.216;2022-11-15T07:56:58;306.47;;;111.27;;
8407;SDS011;4241;48.452;9.216;2022-11-15T07:59:25;309.23;;;112.17;;
8407;SDS011;4241;48.452;9.216;2022-11-15T08:01:53;316.43;;;115.60;;
8407;SDS011;4241;48.452;9.216;2022-11-15T08:04:20;321.10;;;117.10;;
8407;SDS011;4241;48.452;9.216;2022-11-15T08:06:47;323.07;;;116.80;;
8407;SDS011;4241;48.452;9.216;2022-11-15T08:09:14;326.63;;;118.17;;
8407;SDS011;4241;48.452;9.216;2022-11-15T08:11:41;1018.60;;;816.57;;
8407;SDS011;4241;48.452;9.216;2022-11-15T08:14:08;997.80;;;794.17;;
8407;SDS011;4241;48.452;9.216;2022-11-15T08:16:35;326.57;;;117.80;;
8407;SDS011;4241;48.452;9.216;2022-11-15T08:19:03;327.53;;;119.53;;
8407;SDS011;4241;48.452;9.216;2022-11-15T08:21:30;331.67;;;121.27;;
8407;SDS011;4241;48.452;9.216;2022-11-15T08:23:57;333.30;;;120.87;;
8407;SDS011;4241;48.452;9.216;2022-11-15T08:26:23;338.27;;;122.27;;
8407;SDS011;4241;48.452;9.216;2022-11-15T08:28:54;336.60;;;120.60;;
8407;SDS011;4241;48.452;9.216;2022-11-15T08:31:20;340.47;;;123.07;;
8407;SDS011;4241;48.452;9.216;2022-11-15T08:33:47;336.30;;;121.70;;
8407;SDS011;4241;48.452;9.216;2022-11-15T08:36:16;344.40;;;124.33;;
8407;SDS011;4241;48.452;9.216;2022-11-15T08:38:43;345.90;;;125.27;;
8407;SDS011;4241;48.452;9.216;2022-11-15T08:41:11;353.33;;;127.90;;
8407;SDS011;4241;48.452;9.216;2022-11-15T08:43:40;348.10;;;125.93;;
8407;SDS011;4241;48.452;9.216;2022-11-15T08:46:07;350.47;;;125.97;;
8407;SDS011;4241;48.452;9.216;2022-11-15T08:48:37;349.30;;;125.47;;
8407;SDS011;4241;48.452;9.216;2022-11-15T08:51:04;353.63;;;126.57;;
8407;SDS011;4241;48.452;9.216;2022-11-15T08:53:33;347.67;;;124.10;;
8407;SDS011;4241;48.452;9.216;2022-11-15T08:56:00;357.87;;;128.63;;
8407;SDS011;4241;48.452;9.216;2022-11-15T08:58:27;360.90;;;129.67;;
8407;SDS011;4241;48.452;9.216;2022-11-15T09:00:54;367.87;;;133.93;;
8407;SDS011;4241;48.452;9.216;2022-11-15T09:03:21;363.00;;;130.43;;
8407;SDS011;4241;48.452;9.216;2022-11-15T09:05:48;371.53;;;134.87;;
8407;SDS011;4241;48.452;9.216;2022-11-15T09:08:15;369.97;;;132.93;;
8407;SDS011;4241;48.452;9.216;2022-11-15T09:10:43;372.07;;;133.60;;
8407;SDS011;4241;48.452;9.216;2022-11-15T09:13:09;380.63;;;135.60;;
8407;SDS011;4241;48.452;9.216;2022-11-15T09:15:37;385.73;;;137.83;;
8407;SDS011;4241;48.452;9.216;2022-11-15T09:18:04;387.60;;;138.07;;
8407;SDS011;4241;48.452;9.216;2022-11-15T09:20:30;390.93;;;138.07;;
8407;SDS011;4241;48.452;9.216;2022-11-15T09:22:59;395.03;;;142.13;;
8407;SDS011;4241;48.452;9.216;2022-11-15T09:25:26;404.50;;;147.30;;
8407;SDS011;4241;48.452;9.216;2022-11-15T09:27:55;397.50;;;142.00;;
8407;SDS011;4241;48.452;9.216;2022-11-15T09:30:22;397.97;;;140.83;;
8407;SDS011;4241;48.452;9.216;2022-11-15T09:32:50;410.87;;;148.50;;
8407;SDS011;4241;48.452;9.216;2022-11-15T09:35:16;403.87;;;144.57;;
8407;SDS011;4241;48.452;9.216;2022-11-15T09:37:43;405.60;;;145.53;;
8407;SDS011;4241;48.452;9.216;2022-11-15T09:40:11;405.93;;;145.03;;
8407;SDS011;4241;48.452;9.216;2022-11-15T09:42:47;427.40;;;162.50;;
8407;SDS011;4241;48.452;9.216;2022-11-15T09:45:30;411.77;;;147.33;;
8407;SDS011;4241;48.452;9.216;2022-11-15T09:48:11;427.00;;;149.47;;
8407;SDS011;4241;48.452;9.216;2022-11-15T09:50:51;446.77;;;143.13;;
8407;SDS011;4241;48.452;9.216;2022-11-15T09:53:25;445.33;;;141.20;;
8407;SDS011;4241;48.452;9.216;2022-11-15T09:55:56;442.47;;;142.43;;
8407;SDS011;4241;48.452;9.216;2022-11-15T09:58:32;442.87;;;142.47;;
8407;SDS011;4241;48.452;9.216;2022-11-15T10:01:03;445.47;;;145.63;;
8407;SDS011;4241;48.452;9.216;2022-11-15T10:03:34;444.50;;;144.63;;
8407;SDS011;4241;48.452;9.216;2022-11-15T10:06:04;445.70;;;144.87;;
8407;SDS011;4241;48.452;9.216;2022-11-15T10:08:43;445.13;;;144.60;;
8407;SDS011;4241;48.452;9.216;2022-11-15T10:11:18;450.83;;;151.07;;
8407;SDS011;4241;48.452;9.216;2022-11-15T10:13:50;447.73;;;147.73;;
8407;SDS011;4241;48.452;9.216;2022-11-15T10:19:32;450.00;;;150.27;;
8407;SDS011;4241;48.452;9.216;2022-11-15T10:22:12;448.80;;;148.80;;
8407;SDS011;4241;48.452;9.216;2022-11-15T10:24:45;457.47;;;158.20;;
8407;SDS011;4241;48.452;9.216;2022-11-15T10:27:13;448.27;;;148.50;;
8407;SDS011;4241;48.452;9.216;2022-11-15T10:29:46;449.50;;;150.60;;
8407;SDS011;4241;48.452;9.216;2022-11-15T10:32:14;452.37;;;151.47;;
8407;SDS011;4241;48.452;9.216;2022-11-15T10:34:43;456.70;;;159.13;;
8407;SDS011;4241;48.452;9.216;2022-11-15T10:37:10;451.87;;;152.33;;
8407;SDS011;4241;48.452;9.216;2022-11-15T10:39:37;450.30;;;151.47;;
8407;SDS011;4241;48.452;9.216;2022-11-15T10:42:16;450.30;;;150.67;;
8407;SDS011;4241;48.452;9.216;2022-11-15T10:44:52;459.53;;;160.83;;
8407;SDS011;4241;48.452;9.216;2022-11-15T10:50:00;451.63;;;153.70;;
8407;SDS011;4241;48.452;9.216;2022-11-15T10:52:29;451.60;;;153.83;;
8407;SDS011;4241;48.452;9.216;2022-11-15T10:54:59;454.93;;;155.70;;
8407;SDS011;4241;48.452;9.216;2022-11-15T10:57:30;450.60;;;152.17;;
8407;SDS011;4241;48.452;9.216;2022-11-15T11:00:05;451.23;;;153.40;;
8407;SDS011;4241;48.452;9.216;2022-11-15T11:02:40;450.37;;;152.20;;
8407;SDS011;4241;48.452;9.216;2022-11-15T11:05:25;450.70;;;153.00;;
8407;SDS011;4241;48.452;9.216;2022-11-15T11:07:55;451.63;;;154.40;;
8407;SDS011;4241;48.452;9.216;2022-11-15T11:10:23;454.77;;;155.80;;
8407;SDS011;4241;48.452;9.216;2022-11-15T11:12:51;454.00;;;155.37;;
8407;SDS011;4241;48.452;9.216;2022-11-15T11:15:19;453.13;;;154.17;;
8407;SDS011;4241;48.452;9.216;2022-11-15T11:17:51;452.27;;;153.03;;
8407;SDS011;4241;48.452;9.216;2022-11-15T11:20:30;454.13;;;155.67;;
8407;SDS011;4241;48.452;9.216;2022-11-15T11:23:03;454.70;;;156.30;;
8407;SDS011;4241;48.452;9.216;2022-11-15T11:25:44;454.27;;;154.47;;
8407;SDS011;4241;48.452;9.216;2022-11-15T11:28:21;453.97;;;156.17;;
8407;SDS011;4241;48.452;9.216;2022-11-15T11:31:00;453.03;;;153.77;;
8407;SDS011;4241;48.452;9.216;2022-11-15T11:33:40;451.93;;;152.53;;
8407;SDS011;4241;48.452;9.216;2022-11-15T11:36:16;460.67;;;161.50;;
8407;SDS011;4241;48.452;9.216;2022-11-15T11:38:53;456.93;;;157.33;;
8407;SDS011;4241;48.452;9.216;2022-11-15T11:41:43;452.07;;;152.23;;
8407;SDS011;4241;48.452;9.216;2022-11-15T11:44:24;453.00;;;152.40;;
8407;SDS011;4241;48.452;9.216;2022-11-15T11:47:01;454.50;;;155.63;;
8407;SDS011;4241;48.452;9.216;2022-11-15T11:49:34;453.03;;;154.00;;
8407;SDS011;4241;48.452;9.216;2022-11-15T11:52:07;454.07;;;154.00;;
8407;SDS011;4241;48.452;9.216;2022-11-15T11:54:39;453.50;;;152.93;;
8407;SDS011;4241;48.452;9.216;2022-11-15T11:57:14;448.93;;;148.60;;
8407;SDS011;4241;48.452;9.216;2022-11-15T11:59:48;448.97;;;148.57;;
8407;SDS011;4241;48.452;9.216;2022-11-15T12:02:24;449.10;;;148.20;;
8407;SDS011;4241;48.452;9.216;2022-11-15T12:04:57;452.40;;;153.00;;
8407;SDS011;4241;48.452;9.216;2022-11-15T12:07:31;449.77;;;149.63;;
8407;SDS011;4241;48.452;9.216;2022-11-15T12:10:02;450.43;;;151.03;;
8407;SDS011;4241;48.452;9.216;2022-11-15T12:12:39;450.63;;;150.20;;
8407;SDS011;4241;48.452;9.216;2022-11-15T12:15:15;446.97;;;146.90;;
8407;SDS011;4241;48.452;9.216;2022-11-15T12:17:47;446.93;;;147.10;;
8407;SDS011;4241;48.452;9.216;2022-11-15T12:20:16;449.23;;;149.70;;
8407;SDS011;4241;48.452;9.216;2022-11-15T12:22:44;451.07;;;151.67;;
8407;SDS011;4241;48.452;9.216;2022-11-15T12:25:18;452.40;;;151.23;;
8407;SDS011;4241;48.452;9.216;2022-11-15T12:27:50;449.57;;;149.23;;
8407;SDS011;4241;48.452;9.216;2022-11-15T12:30:21;451.67;;;151.10;;
8407;SDS011;4241;48.452;9.216;2022-11-15T12:32:51;450.03;;;149.97;;
8407;SDS011;4241;48.452;9.216;2022-11-15T12:35:24;446.47;;;148.17;;
8407;SDS011;4241;48.452;9.216;2022-11-15T12:37:54;447.93;;;148.00;;
8407;SDS011;4241;48.452;9.216;2022-11-15T12:40:34;448.40;;;148.00;;
8407;SDS011;4241;48.452;9.216;2022-11-15T12:46:06;463.57;;;164.03;;
8407;SDS011;4241;48.452;9.216;2022-11-15T12:57:31;447.03;;;145.87;;
8407;SDS011;4241;48.452;9.216;2022-11-15T13:00:34;446.53;;;145.53;;
8407;SDS011;4241;48.452;9.216;2022-11-15T13:03:16;446.73;;;147.17;;
8407;SDS011;4241;48.452;9.216;2022-11-15T13:06:08;451.73;;;151.43;;
8407;SDS011;4241;48.452;9.216;2022-11-15T13:08:51;448.87;;;147.87;;
8407;SDS011;4241;48.452;9.216;2022-11-15T13:17:10;452.97;;;151.90;;
8407;SDS011;4241;48.452;9.216;2022-11-15T13:19:49;449.80;;;149.37;;
8407;SDS011;4241;48.452;9.216;2022-11-15T13:22:25;449.03;;;148.77;;
8407;SDS011;4241;48.452;9.216;2022-11-15T13:25:15;451.43;;;151.63;;
8407;SDS011;4241;48.452;9.216;2022-11-15T13:27:45;450.60;;;150.77;;
8407;SDS011;4241;48.452;9.216;2022-11-15T13:30:15;451.50;;;151.83;;
8407;SDS011;4241;48.452;9.216;2022-11-15T13:32:48;449.47;;;150.20;;
8407;SDS011;4241;48.452;9.216;2022-11-15T13:35:18;450.27;;;150.20;;
8407;SDS011;4241;48.452;9.216;2022-11-15T13:37:49;449.97;;;149.33;;
8407;SDS011;4241;48.452;9.216;2022-11-15T13:40:20;450.87;;;151.77;;
8407;SDS011;4241;48.452;9.216;2022-11-15T13:42:49;449.70;;;150.70;;
8407;SDS011;4241;48.452;9.216;2022-11-15T13:45:17;450.70;;;151.63;;
8407;SDS011;4241;48.452;9.216;2022-11-15T13:47:47;452.30;;;152.03;;
8407;SDS011;4241;48.452;9.216;2022-11-15T13:50:17;451.00;;;151.40;;
8407;SDS011;4241;48.452;9.216;2022-11-15T13:52:49;452.90;;;153.23;;
8407;SDS011;4241;48.452;9.216;2022-11-15T13:55:17;449.67;;;149.73;;
8407;SDS011;4241;48.452;9.216;2022-11-15T13:57:47;449.80;;;150.13;;
8407;SDS011;4241;48.452;9.216;2022-11-15T14:00:24;449.40;;;149.60;;
8407;SDS011;4241;48.452;9.216;2022-11-15T14:02:54;452.60;;;153.43;;
8407;SDS011;4241;48.452;9.216;2022-11-15T14:05:22;452.87;;;152.07;;
8407;SDS011;4241;48.452;9.216;2022-11-15T14:07:55;450.93;;;150.77;;
8407;SDS011;4241;48.452;9.216;2022-11-15T14:10:27;449.67;;;149.03;;
8407;SDS011;4241;48.452;9.216;2022-11-15T14:12:56;451.80;;;150.97;;
8407;SDS011;4241;48.452;9.216;2022-11-15T14:15:25;448.73;;;148.30;;
8407;SDS011;4241;48.452;9.216;2022-11-15T14:17:55;450.13;;;149.70;;
8407;SDS011;4241;48.452;9.216;2022-11-15T14:20:26;450.43;;;150.83;;
8407;SDS011;4241;48.452;9.216;2022-11-15T14:22:59;450.73;;;150.47;;
8407;SDS011;4241;48.452;9.216;2022-11-15T14:25:27;450.53;;;149.73;;
8407;SDS011;4241;48.452;9.216;2022-11-15T14:28:08;448.90;;;148.90;;
8407;SDS011;4241;48.452;9.216;2022-11-15T14:30:41;449.00;;;148.37;;
8407;SDS011;4241;48.452;9.216;2022-11-15T14:33:17;448.97;;;147.40;;
8407;SDS011;4241;48.452;9.216;2022-11-15T14:35:49;448.57;;;148.30;;
8407;SDS011;4241;48.452;9.216;2022-11-15T14:38:17;450.13;;;150.17;;
8407;SDS011;4241;48.452;9.216;2022-11-15T14:40:44;450.97;;;150.17;;
8407;SDS011;4241;48.452;9.216;2022-11-15T14:43:11;448.67;;;148.40;;
8407;SDS011;4241;48.452;9.216;2022-11-15T14:45:38;448.77;;;148.10;;
8407;SDS011;4241;48.452;9.216;2022-11-15T14:48:06;448.93;;;148.00;;
8407;SDS011;4241;48.452;9.216;2022-11-15T14:50:33;449.53;;;149.03;;
8407;SDS011;4241;48.452;9.216;2022-11-15T14:53:01;451.73;;;150.93;;
8407;SDS011;4241;48.452;9.216;2022-11-15T14:55:30;449.00;;;147.87;;
8407;SDS011;4241;48.452;9.216;2022-11-15T14:58:00;451.03;;;148.83;;
8407;SDS011;4241;48.452;9.216;2022-11-15T15:00:28;450.77;;;150.97;;
8407;SDS011;4241;48.452;9.216;2022-11-15T15:02:56;450.90;;;152.30;;
8407;SDS011;4241;48.452;9.216;2022-11-15T15:05:23;449.80;;;148.87;;
8407;SDS011;4241;48.452;9.216;2022-11-15T15:07:51;451.93;;;151.87;;
8407;SDS011;4241;48.452;9.216;2022-11-15T15:10:19;448.27;;;147.37;;
8407;SDS011;4241;48.452;9.216;2022-11-15T15:12:47;465.30;;;166.13;;